Time;durP1;ratioP1;P1;durP2;ratioP2;P2;SDS_P1;SDS_P2;PMS_P1;PMS_P2;Temp;Humidity;BMP_temperature;BMP_pressure;BME280_temperature;BME280_humidity;BME280_pressure;Samples;Min_cycle;Max_cycle;Signal;HPM_P1;HPM_P2
2022/01/18 00:03:58;;;;;;;4.22;3.55;;;;;;;;;;10443991;27;20150;-53
2022/01/18 00:08:56;;;;;;;4.28;2.00;;;;;;;;;;10443948;27;20134;-48
2022/01/18 00:14:02;;;;;;;2.78;2.58;;;;;;;;;;10443616;27;20027;-52
2022/01/18 00:19:07;;;;;;;3.30;3.00;;;;;;;;;;10443964;27;20529;-54
2022/01/18 00:24:07;;;;;;;;;;;;;;;;;;10444441;27;20066;-50
2022/01/18 00:29:09;;;;;;;5.32;3.83;;;;;;;;;;10443460;27;20396;-54
2022/01/18 00:34:14;;;;;;;5.20;4.07;;;;;;;;;;10443599;27;20058;-50
2022/01/18 00:39:12;;;;;;;3.75;2.65;;;;;;;;;;10443210;27;20063;-54
2022/01/18 00:44:11;;;;;;;2.90;2.70;;;;;;;;;;10442851;27;20093;-54
2022/01/18 00:49:13;;;;;;;2.67;2.45;;;;;;;;;;10442665;27;20085;-53
2022/01/18 00:54:13;;;;;;;7.15;4.00;;;;;;;;;;10442533;27;20070;-53
2022/01/18 00:59:12;;;;;;;3.72;2.83;;;;;;;;;;10442271;27;20494;-53
2022/01/18 01:04:12;;;;;;;9.55;3.20;;;;;;;;;;10442086;27;20075;-55
2022/01/18 01:09:10;;;;;;;3.38;2.55;;;;;;;;;;10441951;27;20043;-52
2022/01/18 01:14:12;;;;;;;2.63;2.42;;;;;;;;;;10441925;27;20039;-53
2022/01/18 01:19:26;;;;;;;8.05;2.97;;;;;;;;;;10441591;27;20066;-54
2022/01/18 01:35:06;;;;;;;3.85;2.90;;;;;;;;;;10440993;27;20097;-54
2022/01/18 01:45:24;;;;;;;4.75;2.25;;;;;;;;;;10440682;27;20644;-55
2022/01/18 01:50:26;;;;;;;7.85;5.00;;;;;;;;;;10439919;27;20047;-55
2022/01/18 01:55:25;;;;;;;9.35;5.28;;;;;;;;;;10440130;27;20071;-53
2022/01/18 02:00:24;;;;;;;10.63;7.13;;;;;;;;;;10439446;27;20113;-52
2022/01/18 02:05:23;;;;;;;3.25;2.03;;;;;;;;;;10439801;27;20085;-54
2022/01/18 02:10:23;;;;;;;4.13;2.67;;;;;;;;;;10439865;27;20146;-52
2022/01/18 02:15:21;;;;;;;5.30;3.85;;;;;;;;;;10439522;27;20079;-56
2022/01/18 02:25:40;;;;;;;12.15;6.75;;;;;;;;;;10439358;27;20079;-54
2022/01/18 02:30:39;;;;;;;3.70;2.97;;;;;;;;;;10439415;27;20189;-55
2022/01/18 02:35:39;;;;;;;3.05;2.45;;;;;;;;;;10439324;27;20058;-53
2022/01/18 02:40:37;;;;;;;4.60;3.30;;;;;;;;;;10438919;27;20075;-49
2022/01/18 02:45:35;;;;;;;4.97;3.03;;;;;;;;;;10438240;27;20077;-54
2022/01/18 02:50:33;;;;;;;2.85;2.60;;;;;;;;;;10438418;27;20283;-53
2022/01/18 02:55:33;;;;;;;3.03;2.17;;;;;;;;;;10438721;28;20407;-54
2022/01/18 03:00:43;;;;;;;2.90;2.60;;;;;;;;;;10438851;28;20053;-53
2022/01/18 03:05:42;;;;;;;5.63;3.55;;;;;;;;;;10438748;28;20179;-52
2022/01/18 03:10:41;;;;;;;5.00;3.50;;;;;;;;;;10438400;27;20511;-54
2022/01/18 03:15:40;;;;;;;2.92;2.63;;;;;;;;;;10437669;28;20069;-54
2022/01/18 03:20:39;;;;;;;6.95;4.25;;;;;;;;;;10437898;27;20067;-54
2022/01/18 03:25:51;;;;;;;8.45;5.03;;;;;;;;;;10444935;27;20082;-55
2022/01/18 03:30:54;;;;;;;8.90;5.75;;;;;;;;;;10446052;27;20496;-53
2022/01/18 03:35:53;;;;;;;4.70;3.80;;;;;;;;;;10445590;27;20071;-50
2022/01/18 03:40:52;;;;;;;7.03;5.43;;;;;;;;;;10445552;27;20082;-52
2022/01/18 03:45:55;;;;;;;5.68;4.72;;;;;;;;;;10444997;27;20089;-53
2022/01/18 03:50:53;;;;;;;4.90;4.00;;;;;;;;;;10445048;27;20072;-52
2022/01/18 03:55:52;;;;;;;8.32;5.72;;;;;;;;;;10444817;27;20484;-54
2022/01/18 04:00:52;;;;;;;5.38;4.35;;;;;;;;;;10445241;27;20054;-51
2022/01/18 04:05:52;;;;;;;15.07;8.30;;;;;;;;;;10444752;27;20492;-53
2022/01/18 04:10:50;;;;;;;5.30;4.32;;;;;;;;;;10444750;27;20054;-49
2022/01/18 04:15:49;;;;;;;7.00;4.55;;;;;;;;;;10444416;27;20071;-53
2022/01/18 04:26:52;;;;;;;5.50;3.55;;;;;;;;;;10444277;27;20070;-53
2022/01/18 04:31:23;;;;;;;4.38;3.90;;;;;;;;;;10443823;27;20469;-53
2022/01/18 04:36:26;;;;;;;12.82;7.53;;;;;;;;;;10443435;27;20071;-52
2022/01/18 04:41:28;;;;;;;13.65;8.05;;;;;;;;;;10443506;27;20043;-51
2022/01/18 04:51:44;;;;;;;9.02;5.00;;;;;;;;;;10441825;27;20078;-54
2022/01/18 05:01:58;;;;;;;8.85;5.93;;;;;;;;;;10443089;27;20059;-52
2022/01/18 05:07:00;;;;;;;14.75;8.07;;;;;;;;;;10440325;27;20109;-52
2022/01/18 05:12:05;;;;;;;17.60;9.40;;;;;;;;;;10442430;27;20047;-51
2022/01/18 05:17:13;;;;;;;6.70;4.60;;;;;;;;;;10442301;27;20067;-54
2022/01/18 05:27:29;;;;;;;6.95;4.90;;;;;;;;;;10440721;27;20082;-54
2022/01/18 05:32:27;;;;;;;20.27;10.63;;;;;;;;;;10439831;27;20463;-55
2022/01/18 05:37:27;;;;;;;9.73;6.65;;;;;;;;;;10440348;27;20054;-55
2022/01/18 05:42:25;;;;;;;9.65;6.45;;;;;;;;;;10439237;27;20082;-51
2022/01/18 05:47:24;;;;;;;15.40;7.95;;;;;;;;;;10438401;27;20051;-51
2022/01/18 05:52:27;;;;;;;14.30;8.85;;;;;;;;;;10440527;27;20055;-52
2022/01/18 05:57:25;;;;;;;12.27;6.72;;;;;;;;;;10439210;27;20420;-50
2022/01/18 06:02:36;;;;;;;8.85;5.85;;;;;;;;;;10417449;27;20050;-51
2022/01/18 06:07:35;;;;;;;6.63;4.18;;;;;;;;;;10438097;27;20067;-51
2022/01/18 06:12:34;;;;;;;9.60;6.00;;;;;;;;;;10439368;27;20431;-54
2022/01/18 06:17:33;;;;;;;17.80;10.40;;;;;;;;;;10438427;27;20166;-52
2022/01/18 06:22:31;;;;;;;14.50;7.93;;;;;;;;;;10437563;27;20067;-53
2022/01/18 06:27:31;;;;;;;12.68;7.10;;;;;;;;;;10435256;27;20112;-54
2022/01/18 06:32:29;;;;;;;8.48;5.20;;;;;;;;;;10434518;27;20539;-51
2022/01/18 06:37:28;;;;;;;5.65;3.80;;;;;;;;;;10437158;27;20068;-54
2022/01/18 06:42:27;;;;;;;11.20;6.15;;;;;;;;;;10437350;27;20555;-53
2022/01/18 06:47:27;;;;;;;10.18;6.78;;;;;;;;;;10437085;27;20078;-55
2022/01/18 06:52:25;;;;;;;12.32;8.52;;;;;;;;;;10437314;27;20043;-53
2022/01/18 06:57:24;;;;;;;7.05;5.20;;;;;;;;;;10443325;27;20089;-54
2022/01/18 07:02:23;;;;;;;12.00;8.05;;;;;;;;;;10450820;27;20441;-52
2022/01/18 07:07:23;;;;;;;7.07;4.22;;;;;;;;;;10450193;27;20457;-54
2022/01/18 07:12:22;;;;;;;7.63;5.20;;;;;;;;;;10450161;27;20523;-56
2022/01/18 07:17:21;;;;;;;9.40;6.07;;;;;;;;;;10448075;27;20071;-54
2022/01/18 07:22:19;;;;;;;8.57;5.97;;;;;;;;;;10448609;27;20079;-52
2022/01/18 07:27:18;;;;;;;12.27;8.13;;;;;;;;;;10447880;27;20082;-56
2022/01/18 07:32:17;;;;;;;11.18;7.45;;;;;;;;;;10447016;27;20074;-53
2022/01/18 07:37:15;;;;;;;11.75;7.78;;;;;;;;;;10449839;27;20078;-54
2022/01/18 07:42:20;;;;;;;15.52;9.52;;;;;;;;;;10451257;27;20047;-55
2022/01/18 07:47:18;;;;;;;16.92;8.48;;;;;;;;;;10449886;27;20448;-51
2022/01/18 07:52:17;;;;;;;18.50;10.38;;;;;;;;;;10450330;27;20097;-51
2022/01/18 07:57:15;;;;;;;13.15;8.90;;;;;;;;;;10452081;27;20073;-51
2022/01/18 08:02:16;;;;;;;9.95;5.68;;;;;;;;;;10452036;27;20039;-51
2022/01/18 08:07:14;;;;;;;9.63;6.68;;;;;;;;;;10449393;27;20086;-55
2022/01/18 08:12:13;;;;;;;8.50;5.25;;;;;;;;;;10444697;27;20083;-49
2022/01/18 08:17:11;;;;;;;13.40;6.93;;;;;;;;;;10444424;27;20476;-51
2022/01/18 08:22:11;;;;;;;14.45;6.90;;;;;;;;;;10442736;27;20043;-54
2022/01/18 08:27:09;;;;;;;14.55;8.20;;;;;;;;;;10444393;27;20078;-52
2022/01/18 08:32:07;;;;;;;8.63;5.35;;;;;;;;;;10444225;27;20066;-54
2022/01/18 08:37:06;;;;;;;5.20;3.97;;;;;;;;;;10441309;27;20488;-54
2022/01/18 08:42:06;;;;;;;6.72;3.80;;;;;;;;;;10443589;27;20047;-55
2022/01/18 08:47:04;;;;;;;8.23;5.60;;;;;;;;;;10442208;27;20082;-54
2022/01/18 08:52:02;;;;;;;16.73;7.80;;;;;;;;;;10442598;27;20055;-54
2022/01/18 08:57:01;;;;;;;6.32;4.75;;;;;;;;;;10443175;27;20077;-53
2022/01/18 09:02:00;;;;;;;11.13;5.03;;;;;;;;;;10443015;27;20041;-53
2022/01/18 09:07:02;;;;;;;17.73;7.38;;;;;;;;;;10442825;27;20476;-50
2022/01/18 09:12:01;;;;;;;19.17;7.60;;;;;;;;;;10440990;27;20054;-51
2022/01/18 09:17:00;;;;;;;12.10;8.07;;;;;;;;;;10441871;27;20530;-53
2022/01/18 09:22:00;;;;;;;16.40;9.48;;;;;;;;;;10440342;27;20039;-53
2022/01/18 09:27:00;;;;;;;11.98;7.45;;;;;;;;;;10440104;27;20085;-54
2022/01/18 09:31:58;;;;;;;21.73;9.55;;;;;;;;;;10441776;27;20079;-53
2022/01/18 09:36:58;;;;;;;15.55;9.38;;;;;;;;;;10440368;27;20585;-54
2022/01/18 09:42:02;;;;;;;9.40;5.07;;;;;;;;;;10438882;27;20039;-55
2022/01/18 09:47:00;;;;;;;15.48;8.07;;;;;;;;;;10440899;27;20086;-54
2022/01/18 09:52:00;;;;;;;15.57;9.05;;;;;;;;;;10439624;27;20054;-50
2022/01/18 09:56:58;;;;;;;19.27;10.20;;;;;;;;;;10439499;27;20039;-55
2022/01/18 10:01:56;;;;;;;9.05;5.93;;;;;;;;;;10440186;27;20447;-54
2022/01/18 10:06:57;;;;;;;17.17;8.82;;;;;;;;;;10439388;27;20083;-55
2022/01/18 10:12:07;;;;;;;8.80;6.03;;;;;;;;;;10438568;27;20051;-53
2022/01/18 10:17:06;;;;;;;10.05;7.60;;;;;;;;;;10438004;27;20496;-53
2022/01/18 10:22:08;;;;;;;6.68;5.20;;;;;;;;;;10438930;27;20152;-51
2022/01/18 10:27:08;;;;;;;7.45;5.00;;;;;;;;;;10439653;27;20082;-52
2022/01/18 10:32:17;;;;;;;15.48;8.80;;;;;;;;;;10437968;27;20051;-54
2022/01/18 10:37:18;;;;;;;13.75;6.47;;;;;;;;;;10437101;27;20126;-55
2022/01/18 10:42:19;;;;;;;14.82;8.57;;;;;;;;;;10437720;27;20504;-54
2022/01/18 10:47:18;;;;;;;25.50;17.83;;;;;;;;;;10436411;27;20093;-54
2022/01/18 10:52:18;;;;;;;15.70;10.65;;;;;;;;;;10438468;27;20487;-52
2022/01/18 10:57:20;;;;;;;16.05;7.25;;;;;;;;;;10439194;28;20499;-55
2022/01/18 11:02:19;;;;;;;12.15;7.78;;;;;;;;;;10438096;28;20070;-52
2022/01/18 11:07:18;;;;;;;24.73;15.10;;;;;;;;;;10437846;28;20079;-54
2022/01/18 11:12:21;;;;;;;28.42;13.63;;;;;;;;;;10437126;28;20039;-54
2022/01/18 11:17:24;;;;;;;18.88;11.20;;;;;;;;;;10437958;27;20091;-54
2022/01/18 11:22:24;;;;;;;16.75;10.00;;;;;;;;;;10437948;27;20047;-56
2022/01/18 11:27:29;;;;;;;19.73;11.40;;;;;;;;;;10437739;27;20085;-55
2022/01/18 11:32:28;;;;;;;17.45;10.02;;;;;;;;;;10437753;28;20412;-52
2022/01/18 11:37:31;;;;;;;18.98;10.73;;;;;;;;;;10437412;28;20075;-50
2022/01/18 11:42:53;;;;;;;9.65;7.03;;;;;;;;;;10437675;27;20081;-52
2022/01/18 11:48:00;;;;;;;19.85;13.93;;;;;;;;;;10429439;27;20082;-54
2022/01/18 11:53:15;;;;;;;10.23;6.07;;;;;;;;;;10444731;27;20072;-52
2022/01/18 11:58:14;;;;;;;16.23;7.68;;;;;;;;;;10443428;27;20081;-51
2022/01/18 12:03:21;;;;;;;7.25;4.80;;;;;;;;;;10443887;27;20039;-49
2022/01/18 12:08:30;;;;;;;10.30;7.43;;;;;;;;;;10444181;27;20101;-50
2022/01/18 12:13:33;;;;;;;27.60;15.05;;;;;;;;;;10444130;27;20083;-53
2022/01/18 12:18:34;;;;;;;19.38;11.43;;;;;;;;;;10443532;27;20046;-54
2022/01/18 12:23:41;;;;;;;12.32;8.93;;;;;;;;;;10443308;27;20046;-53
2022/01/18 12:29:18;;;;;;;12.95;6.50;;;;;;;;;;10443352;27;20066;-54
2022/01/18 12:39:52;;;;;;;6.85;4.57;;;;;;;;;;10494115;27;20747;-55
2022/01/18 12:44:51;;;;;;;6.53;5.13;;;;;;;;;;10516716;27;20038;-54
2022/01/18 12:49:51;;;;;;;5.38;4.57;;;;;;;;;;10515383;27;20066;-56
2022/01/18 12:54:50;;;;;;;15.65;9.02;;;;;;;;;;10515572;27;20074;-53
2022/01/18 12:59:58;;;;;;;7.72;5.07;;;;;;;;;;10516462;27;20043;-55
2022/01/18 13:04:57;;;;;;;8.70;5.75;;;;;;;;;;10515998;27;20116;-53
2022/01/18 13:09:56;;;;;;;12.05;6.60;;;;;;;;;;10515683;27;20093;-55
2022/01/18 13:14:55;;;;;;;7.88;5.97;;;;;;;;;;10514887;27;20078;-55
2022/01/18 13:25:13;;;;;;;12.88;7.40;;;;;;;;;;10515674;27;20425;-55
2022/01/18 13:30:15;;;;;;;5.15;3.88;;;;;;;;;;10515271;27;20069;-52
2022/01/18 13:35:16;;;;;;;9.27;5.85;;;;;;;;;;10514419;27;20046;-50
2022/01/18 13:40:17;;;;;;;12.25;8.43;;;;;;;;;;10515351;27;20046;-52
2022/01/18 13:45:18;;;;;;;17.08;11.48;;;;;;;;;;10513499;27;20066;-51
2022/01/18 13:50:35;;;;;;;15.32;7.65;;;;;;;;;;10489947;27;20038;-54
2022/01/18 13:55:34;;;;;;;6.78;5.10;;;;;;;;;;10484953;27;20089;-53
2022/01/18 14:00:32;;;;;;;9.23;6.55;;;;;;;;;;10483023;27;20410;-53
2022/01/18 14:05:30;;;;;;;13.60;8.95;;;;;;;;;;10483581;27;20082;-53
2022/01/18 14:10:30;;;;;;;10.13;5.50;;;;;;;;;;10484414;27;20073;-50
2022/01/18 14:15:35;;;;;;;19.35;10.55;;;;;;;;;;10483160;27;20062;-50
2022/01/18 14:20:34;;;;;;;24.88;14.93;;;;;;;;;;10480965;27;20042;-59
2022/01/18 14:25:34;;;;;;;24.65;10.73;;;;;;;;;;10482911;27;20043;-53
2022/01/18 14:30:32;;;;;;;23.23;10.60;;;;;;;;;;10482336;27;20066;-52
2022/01/18 14:35:31;;;;;;;21.92;12.93;;;;;;;;;;10480478;27;20074;-54
2022/01/18 14:40:30;;;;;;;38.78;18.02;;;;;;;;;;10479868;27;20467;-55
2022/01/18 14:45:35;;;;;;;21.15;10.30;;;;;;;;;;10481494;27;20046;-53
2022/01/18 14:50:34;;;;;;;25.88;14.38;;;;;;;;;;10480957;27;20070;-54
2022/01/18 14:55:33;;;;;;;26.25;14.52;;;;;;;;;;10481270;27;20061;-53
2022/01/18 15:00:33;;;;;;;17.17;10.40;;;;;;;;;;10483497;27;20066;-54
2022/01/18 15:05:32;;;;;;;25.40;10.25;;;;;;;;;;10483166;27;20140;-55
2022/01/18 15:10:31;;;;;;;37.05;20.02;;;;;;;;;;10482642;27;20046;-54
2022/01/18 15:15:29;;;;;;;19.23;12.05;;;;;;;;;;10482566;27;20051;-54
2022/01/18 15:20:29;;;;;;;17.83;11.40;;;;;;;;;;10480077;27;20150;-54
2022/01/18 15:25:27;;;;;;;25.50;16.48;;;;;;;;;;10479888;27;20046;-52
2022/01/18 15:30:27;;;;;;;18.83;12.68;;;;;;;;;;10478567;27;20047;-54
2022/01/18 15:35:25;;;;;;;23.55;12.75;;;;;;;;;;10480941;27;20043;-53
2022/01/18 15:40:26;;;;;;;14.27;10.25;;;;;;;;;;10479847;27;20154;-54
2022/01/18 15:45:25;;;;;;;10.93;8.35;;;;;;;;;;10478125;27;20164;-53
2022/01/18 15:50:23;;;;;;;11.27;8.73;;;;;;;;;;10478526;27;20049;-53
2022/01/18 15:55:21;;;;;;;16.42;10.57;;;;;;;;;;10478207;27;20043;-55
2022/01/18 16:00:21;;;;;;;16.92;7.72;;;;;;;;;;10479894;27;20096;-52
2022/01/18 16:05:19;;;;;;;15.35;8.95;;;;;;;;;;10479300;27;20073;-54
2022/01/18 16:10:18;;;;;;;15.05;9.95;;;;;;;;;;10479294;27;20463;-54
2022/01/18 16:15:16;;;;;;;22.90;9.77;;;;;;;;;;10478252;27;20042;-55
2022/01/18 16:20:16;;;;;;;31.60;16.50;;;;;;;;;;10477690;27;20496;-53
2022/01/18 16:25:14;;;;;;;32.30;18.17;;;;;;;;;;10479320;27;20039;-53
2022/01/18 16:30:13;;;;;;;23.38;16.88;;;;;;;;;;10478359;27;20045;-54
2022/01/18 16:35:11;;;;;;;19.13;9.25;;;;;;;;;;10478377;27;20514;-53
2022/01/18 16:40:12;;;;;;;15.45;9.38;;;;;;;;;;10477811;27;20074;-51
2022/01/18 16:45:11;;;;;;;26.45;16.38;;;;;;;;;;10479650;27;20031;-52
2022/01/18 16:50:10;;;;;;;47.58;27.67;;;;;;;;;;10478683;27;20081;-48
2022/01/18 16:55:08;;;;;;;23.45;16.13;;;;;;;;;;10478453;27;20038;-50
2022/01/18 17:00:09;;;;;;;19.60;11.55;;;;;;;;;;10478170;27;20101;-50
2022/01/18 17:05:09;;;;;;;35.30;21.92;;;;;;;;;;10479016;27;20761;-54
2022/01/18 17:10:08;;;;;;;34.90;19.45;;;;;;;;;;10478825;27;20349;-52
2022/01/18 17:15:08;;;;;;;21.27;14.95;;;;;;;;;;10478836;27;20043;-53
2022/01/18 17:20:08;;;;;;;16.50;12.02;;;;;;;;;;10479445;27;20081;-54
2022/01/18 17:25:06;;;;;;;16.17;10.50;;;;;;;;;;10484737;27;20050;-54
2022/01/18 17:30:05;;;;;;;24.92;15.98;;;;;;;;;;10487248;27;20074;-53
2022/01/18 17:35:05;;;;;;;23.98;15.38;;;;;;;;;;10486783;27;20069;-55
2022/01/18 17:40:04;;;;;;;10.85;7.50;;;;;;;;;;10485610;27;20447;-53
2022/01/18 17:45:03;;;;;;;14.18;9.07;;;;;;;;;;10487183;27;20399;-51
2022/01/18 17:50:01;;;;;;;52.80;36.17;;;;;;;;;;10476887;27;20055;-51
2022/01/18 17:55:01;;;;;;;21.67;13.23;;;;;;;;;;10471226;27;20173;-53
2022/01/18 18:00:00;;;;;;;16.63;10.25;;;;;;;;;;10450065;27;20075;-53
2022/01/18 18:04:59;;;;;;;44.58;23.55;;;;;;;;;;10466915;27;20043;-54
2022/01/18 18:09:57;;;;;;;65.15;34.20;;;;;;;;;;10468827;27;20054;-52
2022/01/18 18:14:58;;;;;;;46.50;23.83;;;;;;;;;;10461101;27;20074;-53
2022/01/18 18:19:56;;;;;;;39.95;19.63;;;;;;;;;;10484214;27;20527;-53
2022/01/18 18:24:55;;;;;;;36.28;21.10;;;;;;;;;;10482483;27;20093;-50
2022/01/18 18:29:54;;;;;;;18.88;13.95;;;;;;;;;;10480721;27;20073;-52
2022/01/18 18:34:54;;;;;;;12.02;8.63;;;;;;;;;;10478969;27;20074;-54
2022/01/18 18:40:03;;;;;;;16.42;10.00;;;;;;;;;;10464485;27;20085;-54
2022/01/18 18:45:01;;;;;;;12.82;9.07;;;;;;;;;;10480611;27;20069;-50
2022/01/18 18:50:00;;;;;;;24.17;11.77;;;;;;;;;;10482084;27;20459;-53
2022/01/18 18:54:59;;;;;;;50.05;24.67;;;;;;;;;;10482483;27;20075;-52
2022/01/18 19:00:17;;;;;;;24.60;15.95;;;;;;;;;;10482346;27;20525;-51
2022/01/18 19:05:17;;;;;;;16.40;11.70;;;;;;;;;;10480220;27;20058;-53
2022/01/18 19:10:15;;;;;;;18.08;12.68;;;;;;;;;;10482323;27;20038;-50
2022/01/18 19:15:15;;;;;;;26.05;14.00;;;;;;;;;;10481755;27;20065;-54
2022/01/18 19:20:13;;;;;;;22.45;12.93;;;;;;;;;;10481333;27;20070;-51
2022/01/18 19:25:13;;;;;;;13.15;9.50;;;;;;;;;;10481615;27;20058;-52
2022/01/18 19:30:12;;;;;;;16.33;11.73;;;;;;;;;;10478082;27;20101;-50
2022/01/18 19:35:11;;;;;;;16.92;11.57;;;;;;;;;;10480985;27;20043;-49
2022/01/18 19:40:10;;;;;;;27.63;18.85;;;;;;;;;;10481122;27;20515;-51
2022/01/18 19:45:11;;;;;;;26.40;16.33;;;;;;;;;;10480392;27;20465;-51
2022/01/18 19:50:10;;;;;;;25.75;13.57;;;;;;;;;;10477885;27;20077;-51
2022/01/18 19:55:09;;;;;;;18.92;13.38;;;;;;;;;;10480469;27;20058;-52
2022/01/18 20:00:08;;;;;;;24.92;15.15;;;;;;;;;;10479803;27;20081;-51
2022/01/18 20:05:12;;;;;;;23.10;14.52;;;;;;;;;;10486132;27;20077;-49
2022/01/18 20:10:10;;;;;;;47.80;23.25;;;;;;;;;;10481403;27;20598;-53
2022/01/18 20:15:09;;;;;;;40.65;22.38;;;;;;;;;;10481420;27;20451;-51
2022/01/18 20:20:08;;;;;;;24.42;14.90;;;;;;;;;;10479268;27;20073;-53
2022/01/18 20:25:09;;;;;;;49.60;30.67;;;;;;;;;;10480543;27;20042;-52
2022/01/18 20:30:09;;;;;;;50.03;29.40;;;;;;;;;;10480857;27;20671;-48
2022/01/18 20:35:08;;;;;;;56.15;34.47;;;;;;;;;;10480078;27;20066;-50
2022/01/18 20:40:13;;;;;;;22.02;12.63;;;;;;;;;;10480144;27;20082;-51
2022/01/18 20:45:11;;;;;;;22.95;12.40;;;;;;;;;;10483573;27;20352;-54
2022/01/18 20:50:09;;;;;;;14.10;7.35;;;;;;;;;;10479972;27;20491;-55
2022/01/18 20:55:09;;;;;;;17.90;10.15;;;;;;;;;;10480597;27;20066;-54
2022/01/18 21:00:08;;;;;;;14.73;9.63;;;;;;;;;;10485346;27;20066;-52
2022/01/18 21:05:08;;;;;;;9.65;6.57;;;;;;;;;;10487668;27;20070;-55
2022/01/18 21:10:07;;;;;;;19.48;11.20;;;;;;;;;;10487260;27;20038;-53
2022/01/18 21:15:07;;;;;;;16.05;10.25;;;;;;;;;;10487657;27;20042;-53
2022/01/18 21:20:06;;;;;;;12.15;8.07;;;;;;;;;;10486990;27;20487;-53
2022/01/18 21:25:05;;;;;;;31.77;17.65;;;;;;;;;;10467666;27;20046;-54
2022/01/18 21:30:04;;;;;;;37.72;19.80;;;;;;;;;;10486323;27;20078;-52
2022/01/18 21:35:04;;;;;;;56.63;26.42;;;;;;;;;;10486661;27;20045;-53
2022/01/18 21:40:02;;;;;;;23.30;12.75;;;;;;;;;;10487114;27;20085;-53
2022/01/18 21:45:01;;;;;;;21.25;13.52;;;;;;;;;;10487139;27;20097;-50
2022/01/18 21:50:02;;;;;;;29.00;16.98;;;;;;;;;;10486916;27;20425;-52
2022/01/18 21:55:01;;;;;;;40.60;21.30;;;;;;;;;;10486449;27;20066;-52
2022/01/18 22:00:00;;;;;;;50.33;25.00;;;;;;;;;;10486311;27;20090;-51
2022/01/18 22:04:59;;;;;;;37.47;18.08;;;;;;;;;;10486021;27;20101;-51
2022/01/18 22:09:57;;;;;;;28.00;17.55;;;;;;;;;;10482940;27;20077;-52
2022/01/18 22:14:57;;;;;;;14.65;9.48;;;;;;;;;;10485178;27;20043;-52
2022/01/18 22:19:56;;;;;;;16.83;8.65;;;;;;;;;;10485509;27;20070;-52
2022/01/18 22:24:54;;;;;;;16.35;9.32;;;;;;;;;;10485401;27;20046;-50
2022/01/18 22:29:53;;;;;;;14.68;8.98;;;;;;;;;;10466915;27;20050;-50
2022/01/18 22:34:52;;;;;;;14.27;8.30;;;;;;;;;;10485174;27;20038;-53
2022/01/18 22:39:50;;;;;;;12.18;6.57;;;;;;;;;;10485324;27;20530;-53
2022/01/18 22:44:49;;;;;;;19.85;14.32;;;;;;;;;;10484939;27;20046;-52
2022/01/18 22:49:47;;;;;;;6.95;5.07;;;;;;;;;;10484194;27;20039;-51
2022/01/18 22:54:47;;;;;;;13.43;8.60;;;;;;;;;;10484443;27;20574;-52
2022/01/18 22:59:45;;;;;;;14.20;8.80;;;;;;;;;;10483666;27;20474;-51
2022/01/18 23:04:46;;;;;;;13.05;7.22;;;;;;;;;;10483344;27;20089;-51
2022/01/18 23:09:44;;;;;;;5.43;4.68;;;;;;;;;;10483779;27;20086;-52
2022/01/18 23:14:44;;;;;;;13.80;9.07;;;;;;;;;;10482810;27;20047;-53
2022/01/18 23:19:42;;;;;;;6.50;5.47;;;;;;;;;;10481288;27;20074;-54
2022/01/18 23:24:41;;;;;;;11.90;7.20;;;;;;;;;;10482995;27;20511;-54
2022/01/18 23:29:39;;;;;;;12.10;7.85;;;;;;;;;;10483442;27;20047;-52
2022/01/18 23:34:39;;;;;;;10.55;4.97;;;;;;;;;;10482823;27;20039;-54
2022/01/18 23:39:42;;;;;;;8.48;4.63;;;;;;;;;;10482873;27;20078;-49
2022/01/18 23:44:41;;;;;;;7.47;4.18;;;;;;;;;;10482231;27;20456;-54
2022/01/18 23:49:40;;;;;;;7.97;4.55;;;;;;;;;;10482188;27;20042;-53
2022/01/18 23:54:40;;;;;;;13.00;9.65;;;;;;;;;;10481900;27;20070;-53
2022/01/18 23:59:38;;;;;;;7.32;4.70;;;;;;;;;;10481795;27;20101;-54
